sensor_id;sensor_type;location;lat;lon;timestamp;temperature;humidity
6146;DHT22;3104;50.348;7.620;2023-02-19T00:01:19;10.00;99.90
6146;DHT22;3104;50.348;7.620;2023-02-19T00:03:49;10.00;99.90
6146;DHT22;3104;50.348;7.620;2023-02-19T00:06:17;10.10;99.90
6146;DHT22;3104;50.348;7.620;2023-02-19T00:08:43;10.10;99.90
6146;DHT22;3104;50.348;7.620;2023-02-19T00:11:11;10.00;99.90
6146;DHT22;3104;50.348;7.620;2023-02-19T00:13:39;10.00;99.90
6146;DHT22;3104;50.348;7.620;2023-02-19T00:16:11;10.00;99.90
6146;DHT22;3104;50.348;7.620;2023-02-19T00:18:37;9.90;99.90
6146;DHT22;3104;50.348;7.620;2023-02-19T00:21:03;10.00;99.90
6146;DHT22;3104;50.348;7.620;2023-02-19T00:23:29;9.90;99.90
6146;DHT22;3104;50.348;7.620;2023-02-19T00:25:54;9.90;99.90
6146;DHT22;3104;50.348;7.620;2023-02-19T00:28:20;9.90;99.90
6146;DHT22;3104;50.348;7.620;2023-02-19T00:30:47;9.90;99.90
6146;DHT22;3104;50.348;7.620;2023-02-19T00:33:12;9.80;99.90
6146;DHT22;3104;50.348;7.620;2023-02-19T00:35:38;9.90;99.90
6146;DHT22;3104;50.348;7.620;2023-02-19T00:38:04;9.90;99.90
6146;DHT22;3104;50.348;7.620;2023-02-19T00:40:30;9.80;99.90
6146;DHT22;3104;50.348;7.620;2023-02-19T00:42:55;9.90;99.90
6146;DHT22;3104;50.348;7.620;2023-02-19T00:45:21;9.80;99.90
6146;DHT22;3104;50.348;7.620;2023-02-19T00:47:47;9.70;99.90
6146;DHT22;3104;50.348;7.620;2023-02-19T00:50:12;9.70;99.90
6146;DHT22;3104;50.348;7.620;2023-02-19T00:52:38;9.70;99.90
6146;DHT22;3104;50.348;7.620;2023-02-19T00:55:04;9.70;99.90
6146;DHT22;3104;50.348;7.620;2023-02-19T00:57:29;9.70;99.90
6146;DHT22;3104;50.348;7.620;2023-02-19T00:59:55;9.70;99.90
6146;DHT22;3104;50.348;7.620;2023-02-19T01:02:20;9.70;99.90
6146;DHT22;3104;50.348;7.620;2023-02-19T01:04:46;9.70;99.90
6146;DHT22;3104;50.348;7.620;2023-02-19T01:07:12;9.80;99.90
6146;DHT22;3104;50.348;7.620;2023-02-19T01:09:37;9.70;99.90
6146;DHT22;3104;50.348;7.620;2023-02-19T01:12:04;9.80;99.90
6146;DHT22;3104;50.348;7.620;2023-02-19T01:14:30;9.80;99.90
6146;DHT22;3104;50.348;7.620;2023-02-19T01:16:55;9.80;99.90
6146;DHT22;3104;50.348;7.620;2023-02-19T01:19:21;9.80;99.90
6146;DHT22;3104;50.348;7.620;2023-02-19T01:21:46;9.80;99.90
6146;DHT22;3104;50.348;7.620;2023-02-19T01:24:12;9.70;99.90
6146;DHT22;3104;50.348;7.620;2023-02-19T01:26:38;9.80;99.90
6146;DHT22;3104;50.348;7.620;2023-02-19T01:29:04;9.80;99.90
6146;DHT22;3104;50.348;7.620;2023-02-19T01:31:30;9.80;99.90
6146;DHT22;3104;50.348;7.620;2023-02-19T01:33:58;9.80;99.90
6146;DHT22;3104;50.348;7.620;2023-02-19T01:36:25;9.80;99.90
6146;DHT22;3104;50.348;7.620;2023-02-19T01:38:51;9.80;99.90
6146;DHT22;3104;50.348;7.620;2023-02-19T01:41:22;9.80;99.90
6146;DHT22;3104;50.348;7.620;2023-02-19T01:46:30;9.80;99.90
6146;DHT22;3104;50.348;7.620;2023-02-19T01:49:07;9.80;99.90
6146;DHT22;3104;50.348;7.620;2023-02-19T01:51:37;9.80;99.90
6146;DHT22;3104;50.348;7.620;2023-02-19T01:54:05;9.90;99.90
6146;DHT22;3104;50.348;7.620;2023-02-19T01:56:32;9.90;99.90
6146;DHT22;3104;50.348;7.620;2023-02-19T01:58:59;9.90;99.90
6146;DHT22;3104;50.348;7.620;2023-02-19T02:01:25;10.00;99.90
6146;DHT22;3104;50.348;7.620;2023-02-19T02:03:51;10.00;99.90
6146;DHT22;3104;50.348;7.620;2023-02-19T02:08:45;10.00;99.90
6146;DHT22;3104;50.348;7.620;2023-02-19T02:11:29;10.00;99.90
6146;DHT22;3104;50.348;7.620;2023-02-19T02:13:55;10.00;99.90
6146;DHT22;3104;50.348;7.620;2023-02-19T02:22:28;9.90;99.90
6146;DHT22;3104;50.348;7.620;2023-02-19T02:27:56;9.80;99.90
6146;DHT22;3104;50.348;7.620;2023-02-19T02:30:30;9.80;99.90
6146;DHT22;3104;50.348;7.620;2023-02-19T02:33:23;9.80;99.90
6146;DHT22;3104;50.348;7.620;2023-02-19T02:35:57;9.80;99.90
6146;DHT22;3104;50.348;7.620;2023-02-19T02:38:26;9.90;99.90
6146;DHT22;3104;50.348;7.620;2023-02-19T02:40:53;9.80;99.90
6146;DHT22;3104;50.348;7.620;2023-02-19T02:43:20;9.90;99.90
6146;DHT22;3104;50.348;7.620;2023-02-19T02:45:46;9.90;99.90
6146;DHT22;3104;50.348;7.620;2023-02-19T02:53:28;10.00;99.90
6146;DHT22;3104;50.348;7.620;2023-02-19T02:56:15;10.00;99.90
6146;DHT22;3104;50.348;7.620;2023-02-19T02:58:42;9.90;99.90
6146;DHT22;3104;50.348;7.620;2023-02-19T03:01:30;10.00;99.90
6146;DHT22;3104;50.348;7.620;2023-02-19T03:10:12;10.00;99.90
6146;DHT22;3104;50.348;7.620;2023-02-19T03:12:39;10.00;99.90
6146;DHT22;3104;50.348;7.620;2023-02-19T03:15:32;10.00;99.90
6146;DHT22;3104;50.348;7.620;2023-02-19T03:18:18;9.90;99.90
6146;DHT22;3104;50.348;7.620;2023-02-19T03:21:06;9.90;99.90
6146;DHT22;3104;50.348;7.620;2023-02-19T03:23:33;9.90;99.90
6146;DHT22;3104;50.348;7.620;2023-02-19T03:26:18;9.90;99.90
6146;DHT22;3104;50.348;7.620;2023-02-19T03:28:47;9.90;99.90
6146;DHT22;3104;50.348;7.620;2023-02-19T03:31:34;9.90;99.90
6146;DHT22;3104;50.348;7.620;2023-02-19T03:34:04;9.90;99.90
6146;DHT22;3104;50.348;7.620;2023-02-19T03:36:41;9.90;99.90
6146;DHT22;3104;50.348;7.620;2023-02-19T03:39:11;9.90;99.90
6146;DHT22;3104;50.348;7.620;2023-02-19T03:47:33;9.90;99.90
6146;DHT22;3104;50.348;7.620;2023-02-19T03:50:16;10.00;99.90
6146;DHT22;3104;50.348;7.620;2023-02-19T03:53:04;9.90;99.90
6146;DHT22;3104;50.348;7.620;2023-02-19T03:55:49;10.00;99.90
6146;DHT22;3104;50.348;7.620;2023-02-19T03:58:26;10.00;99.90
6146;DHT22;3104;50.348;7.620;2023-02-19T04:03:50;10.10;99.90
6146;DHT22;3104;50.348;7.620;2023-02-19T04:06:29;10.00;99.90
6146;DHT22;3104;50.348;7.620;2023-02-19T04:09:00;10.00;99.90
6146;DHT22;3104;50.348;7.620;2023-02-19T04:11:28;10.10;99.90
6146;DHT22;3104;50.348;7.620;2023-02-19T04:14:00;10.00;99.90
6146;DHT22;3104;50.348;7.620;2023-02-19T04:16:28;10.00;99.90
6146;DHT22;3104;50.348;7.620;2023-02-19T04:18:57;10.00;99.90
6146;DHT22;3104;50.348;7.620;2023-02-19T04:21:24;10.00;99.90
6146;DHT22;3104;50.348;7.620;2023-02-19T04:23:51;10.00;99.90
6146;DHT22;3104;50.348;7.620;2023-02-19T04:26:19;10.00;99.90
6146;DHT22;3104;50.348;7.620;2023-02-19T04:28:46;10.00;99.90
6146;DHT22;3104;50.348;7.620;2023-02-19T04:31:12;9.90;99.90
6146;DHT22;3104;50.348;7.620;2023-02-19T04:33:38;9.90;99.90
6146;DHT22;3104;50.348;7.620;2023-02-19T04:36:03;10.00;99.90
6146;DHT22;3104;50.348;7.620;2023-02-19T04:38:29;9.90;99.90
6146;DHT22;3104;50.348;7.620;2023-02-19T04:40:55;9.90;99.90
6146;DHT22;3104;50.348;7.620;2023-02-19T04:43:20;9.90;99.90
6146;DHT22;3104;50.348;7.620;2023-02-19T04:45:46;9.90;99.90
6146;DHT22;3104;50.348;7.620;2023-02-19T04:48:11;9.90;99.90
6146;DHT22;3104;50.348;7.620;2023-02-19T04:50:38;9.90;99.90
6146;DHT22;3104;50.348;7.620;2023-02-19T04:53:04;9.90;99.90
6146;DHT22;3104;50.348;7.620;2023-02-19T04:55:30;9.90;99.90
6146;DHT22;3104;50.348;7.620;2023-02-19T04:57:56;9.90;99.90
6146;DHT22;3104;50.348;7.620;2023-02-19T05:00:21;9.90;99.90
6146;DHT22;3104;50.348;7.620;2023-02-19T05:02:48;9.90;99.90
6146;DHT22;3104;50.348;7.620;2023-02-19T05:05:14;9.90;99.90
6146;DHT22;3104;50.348;7.620;2023-02-19T05:07:39;9.90;99.90
6146;DHT22;3104;50.348;7.620;2023-02-19T05:10:05;9.90;99.90
6146;DHT22;3104;50.348;7.620;2023-02-19T05:12:31;10.00;99.90
6146;DHT22;3104;50.348;7.620;2023-02-19T05:14:57;9.90;99.90
6146;DHT22;3104;50.348;7.620;2023-02-19T05:17:22;9.90;99.90
6146;DHT22;3104;50.348;7.620;2023-02-19T05:19:48;9.90;99.90
6146;DHT22;3104;50.348;7.620;2023-02-19T05:22:13;9.90;99.90
6146;DHT22;3104;50.348;7.620;2023-02-19T05:24:39;9.80;99.90
6146;DHT22;3104;50.348;7.620;2023-02-19T05:27:04;9.80;99.90
6146;DHT22;3104;50.348;7.620;2023-02-19T05:29:30;9.80;99.90
6146;DHT22;3104;50.348;7.620;2023-02-19T05:31:56;9.80;99.90
6146;DHT22;3104;50.348;7.620;2023-02-19T05:34:22;9.80;99.90
6146;DHT22;3104;50.348;7.620;2023-02-19T05:36:47;9.70;99.90
6146;DHT22;3104;50.348;7.620;2023-02-19T05:39:13;9.70;99.90
6146;DHT22;3104;50.348;7.620;2023-02-19T05:41:38;9.60;99.90
6146;DHT22;3104;50.348;7.620;2023-02-19T05:44:04;9.50;99.90
6146;DHT22;3104;50.348;7.620;2023-02-19T05:46:30;9.60;99.90
6146;DHT22;3104;50.348;7.620;2023-02-19T05:48:56;9.50;99.90
6146;DHT22;3104;50.348;7.620;2023-02-19T05:51:24;9.50;99.90
6146;DHT22;3104;50.348;7.620;2023-02-19T05:53:50;9.50;99.90
6146;DHT22;3104;50.348;7.620;2023-02-19T05:58:49;9.50;99.90
6146;DHT22;3104;50.348;7.620;2023-02-19T06:01:20;9.60;99.90
6146;DHT22;3104;50.348;7.620;2023-02-19T06:03:46;9.50;99.90
6146;DHT22;3104;50.348;7.620;2023-02-19T06:06:13;9.60;99.90
6146;DHT22;3104;50.348;7.620;2023-02-19T06:08:38;9.60;99.90
6146;DHT22;3104;50.348;7.620;2023-02-19T06:11:04;9.60;99.90
6146;DHT22;3104;50.348;7.620;2023-02-19T06:13:30;9.60;99.90
6146;DHT22;3104;50.348;7.620;2023-02-19T06:15:55;9.60;99.90
6146;DHT22;3104;50.348;7.620;2023-02-19T06:18:21;9.60;99.90
6146;DHT22;3104;50.348;7.620;2023-02-19T06:20:46;9.60;99.90
6146;DHT22;3104;50.348;7.620;2023-02-19T06:23:12;9.60;99.90
6146;DHT22;3104;50.348;7.620;2023-02-19T06:25:38;9.60;99.90
6146;DHT22;3104;50.348;7.620;2023-02-19T06:28:03;9.60;99.90
6146;DHT22;3104;50.348;7.620;2023-02-19T06:30:29;9.60;99.90
6146;DHT22;3104;50.348;7.620;2023-02-19T06:32:55;9.70;99.90
6146;DHT22;3104;50.348;7.620;2023-02-19T06:35:20;9.60;99.90
6146;DHT22;3104;50.348;7.620;2023-02-19T06:37:47;9.70;99.90
6146;DHT22;3104;50.348;7.620;2023-02-19T06:40:13;9.70;99.90
6146;DHT22;3104;50.348;7.620;2023-02-19T06:42:39;9.70;99.90
6146;DHT22;3104;50.348;7.620;2023-02-19T06:45:07;9.70;99.90
6146;DHT22;3104;50.348;7.620;2023-02-19T06:47:36;9.70;99.90
6146;DHT22;3104;50.348;7.620;2023-02-19T06:50:02;9.80;99.90
6146;DHT22;3104;50.348;7.620;2023-02-19T06:52:27;9.80;99.90
6146;DHT22;3104;50.348;7.620;2023-02-19T06:54:53;9.80;99.90
6146;DHT22;3104;50.348;7.620;2023-02-19T06:57:18;9.80;99.90
6146;DHT22;3104;50.348;7.620;2023-02-19T06:59:45;9.80;99.90
6146;DHT22;3104;50.348;7.620;2023-02-19T07:02:11;9.80;99.90
6146;DHT22;3104;50.348;7.620;2023-02-19T07:04:37;9.80;99.90
6146;DHT22;3104;50.348;7.620;2023-02-19T07:07:03;9.90;99.90
6146;DHT22;3104;50.348;7.620;2023-02-19T07:09:28;9.90;99.90
6146;DHT22;3104;50.348;7.620;2023-02-19T07:11:54;9.80;99.90
6146;DHT22;3104;50.348;7.620;2023-02-19T07:14:19;9.80;99.90
6146;DHT22;3104;50.348;7.620;2023-02-19T07:16:45;9.80;99.90
6146;DHT22;3104;50.348;7.620;2023-02-19T07:19:12;9.80;99.90
6146;DHT22;3104;50.348;7.620;2023-02-19T07:21:38;9.80;99.90
6146;DHT22;3104;50.348;7.620;2023-02-19T07:24:04;9.80;99.90
6146;DHT22;3104;50.348;7.620;2023-02-19T07:26:29;9.80;99.90
6146;DHT22;3104;50.348;7.620;2023-02-19T07:28:55;9.80;99.90
6146;DHT22;3104;50.348;7.620;2023-02-19T07:31:22;9.70;99.90
6146;DHT22;3104;50.348;7.620;2023-02-19T07:33:48;9.70;99.90
6146;DHT22;3104;50.348;7.620;2023-02-19T07:36:16;9.70;99.90
6146;DHT22;3104;50.348;7.620;2023-02-19T07:38:43;9.70;99.90
6146;DHT22;3104;50.348;7.620;2023-02-19T07:41:08;9.80;99.90
6146;DHT22;3104;50.348;7.620;2023-02-19T07:43:36;9.90;99.90
6146;DHT22;3104;50.348;7.620;2023-02-19T07:46:05;9.90;99.90
6146;DHT22;3104;50.348;7.620;2023-02-19T07:48:31;9.90;99.90
6146;DHT22;3104;50.348;7.620;2023-02-19T07:51:01;9.90;99.90
6146;DHT22;3104;50.348;7.620;2023-02-19T07:53:28;10.10;99.90
6146;DHT22;3104;50.348;7.620;2023-02-19T07:55:58;10.00;99.90
6146;DHT22;3104;50.348;7.620;2023-02-19T07:58:23;9.90;99.90
6146;DHT22;3104;50.348;7.620;2023-02-19T08:00:49;10.00;99.90
6146;DHT22;3104;50.348;7.620;2023-02-19T08:03:15;10.10;99.90
6146;DHT22;3104;50.348;7.620;2023-02-19T08:05:41;10.00;99.90
6146;DHT22;3104;50.348;7.620;2023-02-19T08:08:09;10.10;99.90
6146;DHT22;3104;50.348;7.620;2023-02-19T08:10:35;10.00;99.90
6146;DHT22;3104;50.348;7.620;2023-02-19T08:13:20;10.10;99.90
6146;DHT22;3104;50.348;7.620;2023-02-19T08:16:07;10.10;99.90
6146;DHT22;3104;50.348;7.620;2023-02-19T08:18:33;10.00;99.90
6146;DHT22;3104;50.348;7.620;2023-02-19T08:20:59;10.00;99.90
6146;DHT22;3104;50.348;7.620;2023-02-19T08:23:26;10.00;99.90
6146;DHT22;3104;50.348;7.620;2023-02-19T08:25:52;10.00;99.90
6146;DHT22;3104;50.348;7.620;2023-02-19T08:28:20;9.80;99.90
6146;DHT22;3104;50.348;7.620;2023-02-19T08:30:46;9.80;99.90
6146;DHT22;3104;50.348;7.620;2023-02-19T08:33:14;9.80;99.90
6146;DHT22;3104;50.348;7.620;2023-02-19T08:35:40;9.80;99.90
6146;DHT22;3104;50.348;7.620;2023-02-19T08:38:08;9.80;99.90
6146;DHT22;3104;50.348;7.620;2023-02-19T08:40:33;9.90;99.90
6146;DHT22;3104;50.348;7.620;2023-02-19T08:43:04;10.00;99.90
6146;DHT22;3104;50.348;7.620;2023-02-19T08:45:30;10.00;99.90
6146;DHT22;3104;50.348;7.620;2023-02-19T08:47:56;10.00;99.90
6146;DHT22;3104;50.348;7.620;2023-02-19T08:50:21;9.90;99.90
6146;DHT22;3104;50.348;7.620;2023-02-19T08:52:47;9.90;99.90
6146;DHT22;3104;50.348;7.620;2023-02-19T08:55:12;9.90;99.90
6146;DHT22;3104;50.348;7.620;2023-02-19T08:57:38;10.00;99.90
6146;DHT22;3104;50.348;7.620;2023-02-19T09:00:05;9.90;99.90
6146;DHT22;3104;50.348;7.620;2023-02-19T09:02:31;9.90;99.90
6146;DHT22;3104;50.348;7.620;2023-02-19T09:04:57;9.90;99.90
6146;DHT22;3104;50.348;7.620;2023-02-19T09:07:22;9.90;99.90
6146;DHT22;3104;50.348;7.620;2023-02-19T09:09:48;9.80;99.90
6146;DHT22;3104;50.348;7.620;2023-02-19T09:12:14;9.80;99.90
6146;DHT22;3104;50.348;7.620;2023-02-19T09:14:39;9.80;99.90
6146;DHT22;3104;50.348;7.620;2023-02-19T09:17:07;9.70;99.90
6146;DHT22;3104;50.348;7.620;2023-02-19T09:19:33;9.80;99.90
6146;DHT22;3104;50.348;7.620;2023-02-19T09:21:58;9.80;99.90
6146;DHT22;3104;50.348;7.620;2023-02-19T09:24:24;9.90;99.90
6146;DHT22;3104;50.348;7.620;2023-02-19T09:26:51;9.90;99.90
6146;DHT22;3104;50.348;7.620;2023-02-19T09:29:18;10.00;99.90
6146;DHT22;3104;50.348;7.620;2023-02-19T09:31:44;10.00;99.90
6146;DHT22;3104;50.348;7.620;2023-02-19T09:34:10;10.10;99.90
6146;DHT22;3104;50.348;7.620;2023-02-19T09:36:38;10.20;99.90
6146;DHT22;3104;50.348;7.620;2023-02-19T09:39:06;10.40;99.90
6146;DHT22;3104;50.348;7.620;2023-02-19T09:42:00;10.40;99.90
6146;DHT22;3104;50.348;7.620;2023-02-19T09:44:31;10.20;99.90
6146;DHT22;3104;50.348;7.620;2023-02-19T09:46:59;10.30;99.90
6146;DHT22;3104;50.348;7.620;2023-02-19T09:49:33;10.30;99.90
6146;DHT22;3104;50.348;7.620;2023-02-19T09:52:34;10.40;99.90
6146;DHT22;3104;50.348;7.620;2023-02-19T09:54:52;10.50;99.90
6146;DHT22;3104;50.348;7.620;2023-02-19T09:57:22;10.40;99.90
6146;DHT22;3104;50.348;7.620;2023-02-19T09:59:55;10.20;99.90
6146;DHT22;3104;50.348;7.620;2023-02-19T10:02:25;10.30;99.90
6146;DHT22;3104;50.348;7.620;2023-02-19T10:04:52;10.30;99.90
6146;DHT22;3104;50.348;7.620;2023-02-19T10:07:21;10.30;99.90
6146;DHT22;3104;50.348;7.620;2023-02-19T10:09:53;10.40;99.90
6146;DHT22;3104;50.348;7.620;2023-02-19T10:12:28;10.50;99.90
6146;DHT22;3104;50.348;7.620;2023-02-19T10:15:15;10.50;99.90
6146;DHT22;3104;50.348;7.620;2023-02-19T10:17:42;10.50;99.90
6146;DHT22;3104;50.348;7.620;2023-02-19T10:20:18;10.40;99.90
6146;DHT22;3104;50.348;7.620;2023-02-19T10:22:46;10.50;99.90
6146;DHT22;3104;50.348;7.620;2023-02-19T10:25:14;10.50;99.90
6146;DHT22;3104;50.348;7.620;2023-02-19T10:27:41;10.50;99.90
6146;DHT22;3104;50.348;7.620;2023-02-19T10:30:17;10.50;99.90
6146;DHT22;3104;50.348;7.620;2023-02-19T10:33:02;10.50;99.90
6146;DHT22;3104;50.348;7.620;2023-02-19T10:35:28;10.60;99.90
6146;DHT22;3104;50.348;7.620;2023-02-19T10:37:55;10.70;99.90
6146;DHT22;3104;50.348;7.620;2023-02-19T10:40:25;10.70;99.90
6146;DHT22;3104;50.348;7.620;2023-02-19T10:43:02;10.80;99.90
6146;DHT22;3104;50.348;7.620;2023-02-19T10:45:45;10.80;99.90
6146;DHT22;3104;50.348;7.620;2023-02-19T10:48:22;10.90;99.90
6146;DHT22;3104;50.348;7.620;2023-02-19T10:50:54;10.90;99.90
6146;DHT22;3104;50.348;7.620;2023-02-19T10:53:33;10.80;99.90
6146;DHT22;3104;50.348;7.620;2023-02-19T10:56:23;10.80;99.90
6146;DHT22;3104;50.348;7.620;2023-02-19T10:58:49;10.70;99.90
6146;DHT22;3104;50.348;7.620;2023-02-19T11:01:23;10.80;99.90
6146;DHT22;3104;50.348;7.620;2023-02-19T11:04:14;10.80;99.90
6146;DHT22;3104;50.348;7.620;2023-02-19T11:06:40;10.70;99.90
6146;DHT22;3104;50.348;7.620;2023-02-19T11:09:32;10.80;99.90
6146;DHT22;3104;50.348;7.620;2023-02-19T11:11:59;10.80;99.90
6146;DHT22;3104;50.348;7.620;2023-02-19T11:14:26;10.70;99.90
6146;DHT22;3104;50.348;7.620;2023-02-19T11:16:57;10.80;99.90
6146;DHT22;3104;50.348;7.620;2023-02-19T11:19:28;10.90;99.90
6146;DHT22;3104;50.348;7.620;2023-02-19T11:21:56;11.00;99.90
6146;DHT22;3104;50.348;7.620;2023-02-19T11:24:27;10.90;99.90
6146;DHT22;3104;50.348;7.620;2023-02-19T11:26:55;10.80;99.90
6146;DHT22;3104;50.348;7.620;2023-02-19T11:29:22;10.80;99.90
6146;DHT22;3104;50.348;7.620;2023-02-19T11:31:49;10.90;99.90
6146;DHT22;3104;50.348;7.620;2023-02-19T11:36:46;10.80;99.90
6146;DHT22;3104;50.348;7.620;2023-02-19T11:42:03;10.70;99.90
6146;DHT22;3104;50.348;7.620;2023-02-19T11:47:37;10.60;99.90
6146;DHT22;3104;50.348;7.620;2023-02-19T11:53:20;10.60;99.90
6146;DHT22;3104;50.348;7.620;2023-02-19T12:07:18;10.50;99.90
6146;DHT22;3104;50.348;7.620;2023-02-19T12:17:33;10.20;99.90
6146;DHT22;3104;50.348;7.620;2023-02-19T12:20:25;10.30;99.90
6146;DHT22;3104;50.348;7.620;2023-02-19T12:25:55;10.50;99.90
6146;DHT22;3104;50.348;7.620;2023-02-19T12:38:38;9.70;99.90
6146;DHT22;3104;50.348;7.620;2023-02-19T12:43:51;9.90;99.90
6146;DHT22;3104;50.348;7.620;2023-02-19T12:46:21;9.90;99.90
6146;DHT22;3104;50.348;7.620;2023-02-19T12:49:09;10.10;99.90
6146;DHT22;3104;50.348;7.620;2023-02-19T12:51:59;10.00;99.90
6146;DHT22;3104;50.348;7.620;2023-02-19T12:54:31;9.90;99.90
6146;DHT22;3104;50.348;7.620;2023-02-19T12:57:03;9.80;99.90
6146;DHT22;3104;50.348;7.620;2023-02-19T12:59:31;9.80;99.90
6146;DHT22;3104;50.348;7.620;2023-02-19T13:02:24;10.00;99.90
6146;DHT22;3104;50.348;7.620;2023-02-19T13:05:24;10.10;99.90
6146;DHT22;3104;50.348;7.620;2023-02-19T13:07:58;10.20;99.90
6146;DHT22;3104;50.348;7.620;2023-02-19T13:10:48;10.30;99.90
6146;DHT22;3104;50.348;7.620;2023-02-19T13:13:19;10.50;99.90
6146;DHT22;3104;50.348;7.620;2023-02-19T13:15:50;10.40;99.90
6146;DHT22;3104;50.348;7.620;2023-02-19T13:18:38;10.60;99.90
6146;DHT22;3104;50.348;7.620;2023-02-19T13:21:04;10.60;99.90
6146;DHT22;3104;50.348;7.620;2023-02-19T13:23:39;10.80;99.90
6146;DHT22;3104;50.348;7.620;2023-02-19T13:37:08;10.90;99.90
6146;DHT22;3104;50.348;7.620;2023-02-19T13:39:34;11.10;99.90
6146;DHT22;3104;50.348;7.620;2023-02-19T13:42:00;11.10;99.90
6146;DHT22;3104;50.348;7.620;2023-02-19T13:44:29;11.30;99.90
6146;DHT22;3104;50.348;7.620;2023-02-19T13:46:55;11.30;99.90
6146;DHT22;3104;50.348;7.620;2023-02-19T13:49:38;11.30;99.90
6146;DHT22;3104;50.348;7.620;2023-02-19T14:01:07;11.20;99.90
6146;DHT22;3104;50.348;7.620;2023-02-19T14:06:04;10.90;99.90
6146;DHT22;3104;50.348;7.620;2023-02-19T14:08:52;10.60;99.90
6146;DHT22;3104;50.348;7.620;2023-02-19T14:14:34;9.90;99.90
6146;DHT22;3104;50.348;7.620;2023-02-19T14:19:52;9.90;99.90
6146;DHT22;3104;50.348;7.620;2023-02-19T14:22:47;9.80;99.90
6146;DHT22;3104;50.348;7.620;2023-02-19T14:26:10;9.90;99.90
6146;DHT22;3104;50.348;7.620;2023-02-19T14:28:27;9.80;99.90
6146;DHT22;3104;50.348;7.620;2023-02-19T14:30:57;9.80;99.90
6146;DHT22;3104;50.348;7.620;2023-02-19T14:33:32;9.80;99.90
6146;DHT22;3104;50.348;7.620;2023-02-19T14:36:04;9.90;99.90
6146;DHT22;3104;50.348;7.620;2023-02-19T14:38:41;9.90;99.90
6146;DHT22;3104;50.348;7.620;2023-02-19T14:41:11;9.90;99.90
6146;DHT22;3104;50.348;7.620;2023-02-19T14:43:37;10.00;99.90
6146;DHT22;3104;50.348;7.620;2023-02-19T14:49:19;10.00;99.90
6146;DHT22;3104;50.348;7.620;2023-02-19T14:51:51;9.80;99.90
6146;DHT22;3104;50.348;7.620;2023-02-19T14:54:29;9.70;99.90
6146;DHT22;3104;50.348;7.620;2023-02-19T14:56:57;9.70;99.90
6146;DHT22;3104;50.348;7.620;2023-02-19T14:59:26;9.60;99.90
6146;DHT22;3104;50.348;7.620;2023-02-19T15:01:53;9.70;99.90
6146;DHT22;3104;50.348;7.620;2023-02-19T15:04:28;9.70;99.90
6146;DHT22;3104;50.348;7.620;2023-02-19T15:06:56;9.70;99.90
6146;DHT22;3104;50.348;7.620;2023-02-19T15:09:29;9.60;99.90
6146;DHT22;3104;50.348;7.620;2023-02-19T15:11:55;9.70;99.90
6146;DHT22;3104;50.348;7.620;2023-02-19T15:14:22;9.60;99.90
6146;DHT22;3104;50.348;7.620;2023-02-19T15:16:56;9.60;99.90
6146;DHT22;3104;50.348;7.620;2023-02-19T15:19:22;9.70;99.90
6146;DHT22;3104;50.348;7.620;2023-02-19T15:21:48;9.70;99.90
6146;DHT22;3104;50.348;7.620;2023-02-19T15:24:15;9.60;99.90
6146;DHT22;3104;50.348;7.620;2023-02-19T15:26:46;9.60;99.90
6146;DHT22;3104;50.348;7.620;2023-02-19T15:29:14;9.70;99.90
6146;DHT22;3104;50.348;7.620;2023-02-19T15:31:50;9.80;99.90
6146;DHT22;3104;50.348;7.620;2023-02-19T15:34:23;9.80;99.90
6146;DHT22;3104;50.348;7.620;2023-02-19T15:36:55;9.90;99.90
6146;DHT22;3104;50.348;7.620;2023-02-19T15:39:23;10.10;99.90
6146;DHT22;3104;50.348;7.620;2023-02-19T15:41:58;10.00;99.90
6146;DHT22;3104;50.348;7.620;2023-02-19T15:47:33;10.20;99.90
6146;DHT22;3104;50.348;7.620;2023-02-19T15:52:59;9.90;99.90
6146;DHT22;3104;50.348;7.620;2023-02-19T15:58:20;10.00;99.90
6146;DHT22;3104;50.348;7.620;2023-02-19T16:00:58;10.20;99.90
6146;DHT22;3104;50.348;7.620;2023-02-19T16:03:27;10.10;99.90
6146;DHT22;3104;50.348;7.620;2023-02-19T16:06:08;10.10;99.90
6146;DHT22;3104;50.348;7.620;2023-02-19T16:08:44;10.20;99.90
6146;DHT22;3104;50.348;7.620;2023-02-19T16:13:48;10.20;99.90
6146;DHT22;3104;50.348;7.620;2023-02-19T16:16:20;10.10;99.90
6146;DHT22;3104;50.348;7.620;2023-02-19T16:18:49;10.00;99.90
6146;DHT22;3104;50.348;7.620;2023-02-19T16:21:20;9.90;99.90
6146;DHT22;3104;50.348;7.620;2023-02-19T16:23:48;9.90;99.90
6146;DHT22;3104;50.348;7.620;2023-02-19T16:26:16;10.00;99.90
6146;DHT22;3104;50.348;7.620;2023-02-19T16:28:42;9.90;99.90
6146;DHT22;3104;50.348;7.620;2023-02-19T16:31:10;9.80;99.90
6146;DHT22;3104;50.348;7.620;2023-02-19T16:33:37;9.90;99.90
6146;DHT22;3104;50.348;7.620;2023-02-19T16:36:37;9.90;99.90
6146;DHT22;3104;50.348;7.620;2023-02-19T16:46:49;10.00;99.90
6146;DHT22;3104;50.348;7.620;2023-02-19T16:49:16;9.90;99.90
6146;DHT22;3104;50.348;7.620;2023-02-19T16:51:44;9.80;99.90
6146;DHT22;3104;50.348;7.620;2023-02-19T16:54:11;9.80;99.90
6146;DHT22;3104;50.348;7.620;2023-02-19T16:56:37;9.80;99.90
6146;DHT22;3104;50.348;7.620;2023-02-19T16:59:03;9.90;99.90
6146;DHT22;3104;50.348;7.620;2023-02-19T17:01:29;9.80;99.90
6146;DHT22;3104;50.348;7.620;2023-02-19T17:03:59;9.80;99.90
6146;DHT22;3104;50.348;7.620;2023-02-19T17:06:26;9.70;99.90
6146;DHT22;3104;50.348;7.620;2023-02-19T17:08:52;9.80;99.90
6146;DHT22;3104;50.348;7.620;2023-02-19T17:11:18;10.10;99.90
6146;DHT22;3104;50.348;7.620;2023-02-19T17:13:44;10.10;99.90
6146;DHT22;3104;50.348;7.620;2023-02-19T17:16:24;10.10;99.90
6146;DHT22;3104;50.348;7.620;2023-02-19T17:18:52;10.10;99.90
6146;DHT22;3104;50.348;7.620;2023-02-19T17:21:22;10.00;99.90
6146;DHT22;3104;50.348;7.620;2023-02-19T17:23:49;10.00;99.90
6146;DHT22;3104;50.348;7.620;2023-02-19T17:26:20;9.90;99.90
6146;DHT22;3104;50.348;7.620;2023-02-19T17:28:46;10.00;99.90
6146;DHT22;3104;50.348;7.620;2023-02-19T17:31:12;9.90;99.90
6146;DHT22;3104;50.348;7.620;2023-02-19T17:33:42;9.90;99.90
6146;DHT22;3104;50.348;7.620;2023-02-19T17:36:16;9.90;99.90
6146;DHT22;3104;50.348;7.620;2023-02-19T17:38:42;9.90;99.90
6146;DHT22;3104;50.348;7.620;2023-02-19T17:41:07;10.00;99.90
6146;DHT22;3104;50.348;7.620;2023-02-19T17:43:33;9.80;99.90
6146;DHT22;3104;50.348;7.620;2023-02-19T17:45:58;9.70;99.90
6146;DHT22;3104;50.348;7.620;2023-02-19T17:48:24;9.70;99.90
6146;DHT22;3104;50.348;7.620;2023-02-19T17:50:50;9.70;99.90
6146;DHT22;3104;50.348;7.620;2023-02-19T17:53:17;9.70;99.90
6146;DHT22;3104;50.348;7.620;2023-02-19T17:55:43;9.70;99.90
6146;DHT22;3104;50.348;7.620;2023-02-19T17:58:08;9.60;99.90
6146;DHT22;3104;50.348;7.620;2023-02-19T18:00:34;9.60;99.90
6146;DHT22;3104;50.348;7.620;2023-02-19T18:03:01;9.80;99.90
6146;DHT22;3104;50.348;7.620;2023-02-19T18:05:27;9.80;99.90
6146;DHT22;3104;50.348;7.620;2023-02-19T18:07:53;9.80;99.90
6146;DHT22;3104;50.348;7.620;2023-02-19T18:10:19;9.90;99.90
6146;DHT22;3104;50.348;7.620;2023-02-19T18:12:45;9.90;99.90
6146;DHT22;3104;50.348;7.620;2023-02-19T18:15:23;10.00;99.90
6146;DHT22;3104;50.348;7.620;2023-02-19T18:17:49;9.80;99.90
6146;DHT22;3104;50.348;7.620;2023-02-19T18:20:17;9.70;99.90
6146;DHT22;3104;50.348;7.620;2023-02-19T18:22:43;9.70;99.90
6146;DHT22;3104;50.348;7.620;2023-02-19T18:25:09;9.60;99.90
6146;DHT22;3104;50.348;7.620;2023-02-19T18:27:36;9.80;99.90
6146;DHT22;3104;50.348;7.620;2023-02-19T18:30:01;9.80;99.90
6146;DHT22;3104;50.348;7.620;2023-02-19T18:32:27;9.90;99.90
6146;DHT22;3104;50.348;7.620;2023-02-19T18:34:56;9.80;99.90
6146;DHT22;3104;50.348;7.620;2023-02-19T18:37:23;9.60;99.90
6146;DHT22;3104;50.348;7.620;2023-02-19T18:39:50;9.60;99.90
6146;DHT22;3104;50.348;7.620;2023-02-19T18:42:15;9.70;99.90